createdAt,value
2023-02-08T00:01:10.602Z,24.13
2023-02-08T00:03:37.672Z,23.85
2023-02-08T00:06:05.652Z,19.90
2023-02-08T00:08:32.542Z,24.05
2023-02-08T00:10:59.334Z,22.15
2023-02-08T00:13:26.464Z,23.05
2023-02-08T00:15:54.676Z,23.95
2023-02-08T00:18:21.830Z,20.63
2023-02-08T00:20:49.067Z,21.58
2023-02-08T00:23:18.928Z,24.33
2023-02-08T00:25:45.639Z,26.67
2023-02-08T00:28:15.084Z,26.58
2023-02-08T00:30:42.635Z,21.38
2023-02-08T00:33:09.883Z,23.63
2023-02-08T00:35:36.761Z,20.90
2023-02-08T00:38:03.437Z,21.92
2023-02-08T00:40:30.240Z,26.23
2023-02-08T00:42:57.178Z,30.77
2023-02-08T00:45:23.781Z,24.30
2023-02-08T00:47:50.403Z,21.67
2023-02-08T00:50:17.094Z,22.75
2023-02-08T00:52:43.697Z,22.42
2023-02-08T00:55:10.905Z,23.48
2023-02-08T00:57:37.665Z,23.33
2023-02-08T01:00:06.187Z,23.25
2023-02-08T01:02:33.150Z,21.00
2023-02-08T01:05:00.159Z,24.38
2023-02-08T01:07:29.537Z,19.20
2023-02-08T01:10:00.535Z,21.83
2023-02-08T01:12:29.357Z,19.67
2023-02-08T01:14:58.944Z,28.58
2023-02-08T01:17:28.630Z,22.02
2023-02-08T01:19:55.262Z,23.52
2023-02-08T01:22:21.979Z,25.38
2023-02-08T01:24:48.618Z,21.48
2023-02-08T01:27:15.245Z,23.42
2023-02-08T01:29:46.644Z,22.92
2023-02-08T01:32:13.233Z,23.77
2023-02-08T01:34:44.181Z,25.52
2023-02-08T01:37:10.990Z,19.70
2023-02-08T01:39:39.649Z,24.27
2023-02-08T01:42:06.393Z,22.25
2023-02-08T01:45:10.713Z,21.85
2023-02-08T01:47:37.901Z,26.13
2023-02-08T01:50:07.903Z,23.05
2023-02-08T01:52:34.779Z,26.50
2023-02-08T01:55:26.064Z,23.90
2023-02-08T01:57:55.504Z,20.95
2023-02-08T02:00:23.522Z,22.77
2023-02-08T02:02:53.673Z,21.83
2023-02-08T02:05:22.393Z,21.95
2023-02-08T02:07:50.584Z,23.80
2023-02-08T02:10:32.235Z,26.45
2023-02-08T02:15:29.453Z,23.10
2023-02-08T02:17:56.437Z,22.25
2023-02-08T02:20:47.257Z,21.55
2023-02-08T02:23:29.950Z,22.13
2023-02-08T02:26:11.968Z,23.40
2023-02-08T02:29:16.137Z,21.08
2023-02-08T02:31:54.187Z,23.35
2023-02-08T02:34:38.869Z,21.58
2023-02-08T02:37:06.336Z,23.25
2023-02-08T02:39:58.086Z,24.35
2023-02-08T02:45:33.248Z,21.73
2023-02-08T02:48:22.699Z,20.85
2023-02-08T02:50:58.949Z,25.73
2023-02-08T02:53:43.796Z,23.83
2023-02-08T02:56:42.123Z,29.67
2023-02-08T02:59:13.456Z,26.25
2023-02-08T03:01:42.744Z,20.77
2023-02-08T03:04:36.566Z,24.85
2023-02-08T03:07:18.327Z,24.25
2023-02-08T03:10:15.832Z,21.30
2023-02-08T03:12:59.468Z,23.38
2023-02-08T03:15:46.828Z,22.98
2023-02-08T03:18:50.747Z,22.10
2023-02-08T03:21:41.770Z,24.38
2023-02-08T03:24:14.278Z,18.70
2023-02-08T03:27:05.412Z,20.42
2023-02-08T03:29:49.122Z,27.38
2023-02-08T03:32:51.300Z,22.38
2023-02-08T03:35:40.096Z,23.95
2023-02-08T03:38:14.996Z,29.90
2023-02-08T03:40:51.101Z,22.70
2023-02-08T03:43:26.247Z,24.98
2023-02-08T03:46:00.141Z,22.42
2023-02-08T03:48:28.258Z,23.73
2023-02-08T03:50:56.837Z,22.92
2023-02-08T03:53:26.225Z,23.63
2023-02-08T03:56:00.047Z,27.27
2023-02-08T03:58:43.633Z,24.27
2023-02-08T04:01:22.411Z,22.20
2023-02-08T04:03:53.062Z,25.20
2023-02-08T04:06:21.056Z,24.70
2023-02-08T04:08:47.988Z,26.40
2023-02-08T04:11:14.746Z,23.75
2023-02-08T04:13:41.332Z,27.25
2023-02-08T04:16:11.452Z,25.02
2023-02-08T04:18:38.161Z,25.80
2023-02-08T04:21:05.734Z,24.83
2023-02-08T04:23:32.507Z,21.58
2023-02-08T04:25:59.151Z,20.52
2023-02-08T04:28:26.268Z,24.67
2023-02-08T04:30:56.903Z,27.15
2023-02-08T04:33:23.628Z,27.83
2023-02-08T04:35:50.249Z,26.83
2023-02-08T04:38:16.837Z,22.33
2023-02-08T04:40:43.563Z,23.25
2023-02-08T04:43:10.194Z,25.88
2023-02-08T04:45:37.601Z,21.58
2023-02-08T04:48:04.481Z,27.45
2023-02-08T04:50:31.121Z,24.17
2023-02-08T04:52:57.869Z,24.40
2023-02-08T04:55:24.822Z,23.20
2023-02-08T04:57:51.440Z,24.23
2023-02-08T05:00:18.921Z,21.15
2023-02-08T05:02:46.060Z,22.65
2023-02-08T05:05:12.751Z,20.63
2023-02-08T05:07:39.377Z,25.08
2023-02-08T05:10:06.303Z,28.10
2023-02-08T05:12:32.894Z,25.30
2023-02-08T05:14:59.505Z,26.75
2023-02-08T05:17:26.131Z,26.33
2023-02-08T05:19:52.794Z,32.28
2023-02-08T05:22:19.440Z,21.17
2023-02-08T05:24:46.039Z,26.23
2023-02-08T05:27:12.654Z,24.85
2023-02-08T05:29:39.311Z,27.27
2023-02-08T05:32:06.458Z,24.30
2023-02-08T05:34:33.264Z,24.45
2023-02-08T05:36:59.898Z,27.55
2023-02-08T05:39:26.509Z,26.17
2023-02-08T05:41:53.113Z,21.08
2023-02-08T05:44:19.753Z,21.98
2023-02-08T05:46:46.564Z,24.63
2023-02-08T05:49:13.403Z,29.50
2023-02-08T05:51:40.177Z,28.55
2023-02-08T05:54:06.796Z,27.60
2023-02-08T05:56:34.595Z,24.17
2023-02-08T05:59:01.942Z,22.60
2023-02-08T06:01:28.911Z,28.50
2023-02-08T06:03:55.543Z,25.33
2023-02-08T06:06:22.160Z,28.67
2023-02-08T06:08:48.738Z,34.13
2023-02-08T06:11:15.441Z,32.10
2023-02-08T06:13:42.123Z,26.60
2023-02-08T06:16:08.811Z,29.40
2023-02-08T06:18:35.693Z,27.45
2023-02-08T06:21:02.314Z,26.20
2023-02-08T06:23:28.917Z,26.83
2023-02-08T06:25:55.547Z,25.40
2023-02-08T06:28:22.387Z,24.42
2023-02-08T06:30:50.203Z,22.98
2023-02-08T06:33:17.278Z,28.52
2023-02-08T06:35:48.278Z,25.00
2023-02-08T06:38:15.158Z,25.90
2023-02-08T06:40:42.429Z,26.55
2023-02-08T06:43:09.233Z,23.80
2023-02-08T06:45:35.910Z,23.77
2023-02-08T06:48:02.586Z,22.60
2023-02-08T06:50:29.223Z,24.52
2023-02-08T06:52:55.792Z,27.15
2023-02-08T06:55:22.522Z,23.23
2023-02-08T06:57:49.215Z,21.77
2023-02-08T07:00:15.966Z,22.80
2023-02-08T07:02:42.612Z,26.50
2023-02-08T07:05:09.225Z,27.30
2023-02-08T07:07:35.901Z,32.55
2023-02-08T07:10:02.589Z,25.40
2023-02-08T07:12:29.192Z,29.63
2023-02-08T07:14:55.789Z,28.70
2023-02-08T07:17:22.392Z,29.02
2023-02-08T07:19:48.977Z,31.05
2023-02-08T07:22:15.571Z,23.67
2023-02-08T07:24:42.258Z,26.08
2023-02-08T07:27:10.950Z,26.90
2023-02-08T07:29:38.331Z,24.20
2023-02-08T07:32:06.236Z,21.52
2023-02-08T07:34:36.675Z,23.95
2023-02-08T07:37:03.782Z,29.20
2023-02-08T07:39:31.291Z,24.30
2023-02-08T07:41:58.760Z,28.20
2023-02-08T07:44:28.676Z,24.30
2023-02-08T07:46:55.297Z,26.63
2023-02-08T07:49:22.021Z,31.48
2023-02-08T07:51:48.667Z,25.33
2023-02-08T07:54:15.422Z,28.27
2023-02-08T07:56:42.218Z,28.05
2023-02-08T07:59:09.007Z,25.65
2023-02-08T08:01:35.645Z,24.77
2023-02-08T08:04:02.331Z,31.63
2023-02-08T08:06:29.089Z,24.52
2023-02-08T08:08:55.744Z,25.90
2023-02-08T08:11:22.719Z,24.17
2023-02-08T08:13:50.033Z,27.88
2023-02-08T08:16:16.838Z,26.98
2023-02-08T08:18:43.563Z,23.90
2023-02-08T08:21:10.538Z,23.50
2023-02-08T08:23:37.958Z,25.92
2023-02-08T08:26:17.393Z,26.98
2023-02-08T08:28:46.472Z,22.90
2023-02-08T08:31:19.329Z,27.95
2023-02-08T08:33:46.229Z,26.63
2023-02-08T08:36:12.919Z,21.63
2023-02-08T08:38:40.921Z,25.55
2023-02-08T08:41:14.692Z,26.83
2023-02-08T08:43:41.491Z,24.77
2023-02-08T08:46:08.928Z,23.17
2023-02-08T08:48:36.822Z,26.33
2023-02-08T08:51:03.873Z,27.00
2023-02-08T08:53:30.685Z,24.30
2023-02-08T08:55:57.478Z,26.58
2023-02-08T08:58:24.161Z,27.90
2023-02-08T09:00:50.853Z,31.83
2023-02-08T09:03:17.626Z,26.90
2023-02-08T09:05:44.320Z,25.67
2023-02-08T09:08:11.002Z,24.80
2023-02-08T09:10:37.640Z,28.75
2023-02-08T09:13:04.326Z,25.73
2023-02-08T09:15:31.076Z,24.98
2023-02-08T09:17:57.733Z,29.60
2023-02-08T09:20:24.537Z,25.55
2023-02-08T09:22:51.827Z,22.58
2023-02-08T09:25:18.467Z,23.33
2023-02-08T09:27:45.164Z,23.83
2023-02-08T09:30:11.981Z,22.35
2023-02-08T09:32:39.913Z,28.98
2023-02-08T09:35:08.086Z,24.38
2023-02-08T09:37:34.855Z,21.13
2023-02-08T09:40:01.694Z,22.08
2023-02-08T09:42:40.147Z,26.20
2023-02-08T09:45:31.021Z,17.67
2023-02-08T09:48:13.919Z,23.40
2023-02-08T09:50:45.870Z,24.05
2023-02-08T09:53:34.170Z,22.58
2023-02-08T09:56:05.542Z,21.23
2023-02-08T09:58:40.098Z,24.60
2023-02-08T10:01:15.985Z,20.50
2023-02-08T10:03:45.114Z,23.83
2023-02-08T10:06:14.814Z,19.38
2023-02-08T10:08:43.285Z,22.73
2023-02-08T10:11:40.035Z,16.60
2023-02-08T10:14:18.624Z,22.75
2023-02-08T10:17:10.042Z,21.85
2023-02-08T10:20:07.082Z,19.88
2023-02-08T10:23:04.610Z,16.55
2023-02-08T10:26:08.182Z,22.63
2023-02-08T10:29:03.995Z,19.85
2023-02-08T10:31:36.721Z,21.42
2023-02-08T10:34:09.659Z,22.55
2023-02-08T10:36:41.901Z,19.50
2023-02-08T10:39:17.466Z,18.80
2023-02-08T10:41:45.093Z,18.40
2023-02-08T10:44:33.157Z,16.58
2023-02-08T10:47:20.703Z,15.55
2023-02-08T10:50:19.105Z,14.00
2023-02-08T10:52:45.914Z,19.75
2023-02-08T10:55:18.169Z,19.63
2023-02-08T10:57:48.299Z,12.95
2023-02-08T11:00:22.233Z,15.15
2023-02-08T11:02:52.587Z,17.63
2023-02-08T11:05:34.332Z,17.33
2023-02-08T11:11:09.977Z,19.00
2023-02-08T11:13:42.576Z,18.55
2023-02-08T11:16:25.019Z,18.83
2023-02-08T11:18:58.870Z,16.20
2023-02-08T11:21:39.123Z,17.25
2023-02-08T11:24:27.124Z,17.75
2023-02-08T11:26:56.200Z,17.40
2023-02-08T11:29:27.986Z,20.33
2023-02-08T11:32:17.757Z,15.93
2023-02-08T11:34:44.939Z,17.98
2023-02-08T11:37:23.143Z,16.92
2023-02-08T11:39:59.205Z,17.58
2023-02-08T11:42:31.519Z,13.75
2023-02-08T11:44:59.798Z,13.88
2023-02-08T11:47:29.316Z,15.55
2023-02-08T11:50:07.650Z,19.45
2023-02-08T11:52:39.094Z,14.80
2023-02-08T11:55:23.953Z,16.02
2023-02-08T11:58:00.197Z,13.52
2023-02-08T12:00:29.894Z,11.95
2023-02-08T12:03:11.869Z,17.73
2023-02-08T12:06:13.071Z,14.98
2023-02-08T12:08:46.151Z,16.07
2023-02-08T12:11:31.788Z,12.80
2023-02-08T12:14:03.982Z,15.82
2023-02-08T12:16:48.621Z,15.35
2023-02-08T12:19:31.736Z,10.43
2023-02-08T12:22:10.890Z,14.77
2023-02-08T12:24:52.234Z,10.02
2023-02-08T12:27:44.693Z,12.73
2023-02-08T12:30:33.746Z,11.38
2023-02-08T12:33:18.659Z,10.40
2023-02-08T12:36:04.074Z,12.07
2023-02-08T12:39:19.062Z,15.20
2023-02-08T12:42:24.924Z,13.27
2023-02-08T12:45:17.583Z,10.18
2023-02-08T12:48:05.335Z,12.00
2023-02-08T12:50:34.973Z,11.30
2023-02-08T12:53:08.201Z,11.45
2023-02-08T12:55:38.479Z,11.60
2023-02-08T12:58:31.816Z,8.75
2023-02-08T13:01:07.567Z,10.60
2023-02-08T13:04:04.938Z,9.38
2023-02-08T13:06:47.009Z,13.60
2023-02-08T13:09:20.457Z,10.85
2023-02-08T13:12:10.416Z,9.15
2023-02-08T13:14:54.846Z,10.30
2023-02-08T13:17:26.984Z,13.27
2023-02-08T13:20:06.011Z,10.35
2023-02-08T13:22:41.537Z,8.00
2023-02-08T13:25:35.134Z,9.82
2023-02-08T13:28:08.945Z,10.23
2023-02-08T13:30:40.183Z,11.82
2023-02-08T13:33:22.061Z,12.30
2023-02-08T13:35:51.530Z,14.50
2023-02-08T13:38:35.353Z,9.50
2023-02-08T13:41:17.665Z,10.93
2023-02-08T13:44:16.604Z,10.30
2023-02-08T13:46:48.968Z,9.77
2023-02-08T13:49:49.558Z,13.77
2023-02-08T13:52:47.564Z,12.82
2023-02-08T13:55:30.716Z,9.48
2023-02-08T13:58:16.170Z,9.05
2023-02-08T14:00:56.388Z,8.52
2023-02-08T14:03:28.284Z,8.90
2023-02-08T14:05:58.487Z,9.00
2023-02-08T14:08:31.552Z,10.88
2023-02-08T14:11:20.280Z,11.20
2023-02-08T14:13:55.831Z,11.38
2023-02-08T14:16:35.844Z,11.43
2023-02-08T14:19:20.997Z,10.05
2023-02-08T14:21:49.042Z,8.40
2023-02-08T14:24:34.054Z,11.88
2023-02-08T14:27:28.234Z,10.63
2023-02-08T14:30:18.145Z,14.43
2023-02-08T14:32:47.640Z,10.43
2023-02-08T14:35:27.916Z,8.38
2023-02-08T14:38:33.665Z,9.68
2023-02-08T14:41:02.332Z,13.18
2023-02-08T14:43:36.479Z,11.20
2023-02-08T14:46:37.460Z,11.43
2023-02-08T14:49:11.498Z,9.32
2023-02-08T14:51:41.423Z,9.63
2023-02-08T14:54:41.774Z,11.75
2023-02-08T14:57:28.843Z,6.80
2023-02-08T15:00:00.309Z,12.30
2023-02-08T15:02:32.219Z,10.70
2023-02-08T15:05:00.050Z,7.63
2023-02-08T15:07:34.912Z,7.03
2023-02-08T15:10:10.869Z,9.40
2023-02-08T15:12:40.040Z,9.13
2023-02-08T15:15:20.568Z,9.75
2023-02-08T15:17:50.560Z,8.07
2023-02-08T15:20:29.075Z,9.60
2023-02-08T15:23:19.105Z,12.95
2023-02-08T15:26:04.506Z,8.32
2023-02-08T15:28:34.789Z,10.82
2023-02-08T15:31:05.781Z,8.50
2023-02-08T15:33:32.767Z,9.18
2023-02-08T15:36:08.920Z,7.68
2023-02-08T15:38:38.744Z,8.45
2023-02-08T15:41:07.021Z,8.40
2023-02-08T15:43:34.836Z,7.55
2023-02-08T15:46:04.355Z,6.90
2023-02-08T15:48:32.839Z,8.38
2023-02-08T15:51:00.851Z,8.00
2023-02-08T15:53:28.217Z,8.95
2023-02-08T15:56:00.017Z,11.65
2023-02-08T15:58:40.393Z,8.95
2023-02-08T16:01:08.984Z,8.68
2023-02-08T16:03:36.862Z,10.32
2023-02-08T16:06:06.690Z,9.93
2023-02-08T16:08:50.049Z,6.72
2023-02-08T16:11:32.858Z,10.20
2023-02-08T16:14:32.276Z,10.27
2023-02-08T16:17:38.375Z,10.15
2023-02-08T16:20:23.849Z,10.90
2023-02-08T16:23:20.040Z,9.18
2023-02-08T16:25:49.724Z,8.45
2023-02-08T16:29:14.751Z,7.68
2023-02-08T16:31:43.580Z,10.35
2023-02-08T16:34:30.230Z,8.90
2023-02-08T16:36:57.085Z,9.23
2023-02-08T16:39:37.702Z,11.48
2023-02-08T16:42:18.735Z,13.23
2023-02-08T16:45:17.096Z,12.00
2023-02-08T16:47:45.905Z,11.27
2023-02-08T16:50:19.901Z,11.90
2023-02-08T16:53:00.976Z,9.30
2023-02-08T16:55:30.751Z,10.75
2023-02-08T16:57:58.677Z,10.48
2023-02-08T17:00:31.998Z,10.77
2023-02-08T17:02:59.185Z,8.65
2023-02-08T17:05:29.465Z,10.48
2023-02-08T17:07:56.713Z,9.55
2023-02-08T17:10:29.544Z,11.68
2023-02-08T17:13:13.197Z,11.77
2023-02-08T17:15:45.161Z,10.02
2023-02-08T17:18:12.931Z,16.67
2023-02-08T17:20:40.117Z,15.25
2023-02-08T17:23:07.017Z,19.15
2023-02-08T17:25:34.940Z,17.20
2023-02-08T17:28:04.613Z,20.45
2023-02-08T17:30:38.457Z,25.00
2023-02-08T17:33:06.524Z,23.45
2023-02-08T17:35:34.265Z,16.63
2023-02-08T17:38:01.741Z,19.08
2023-02-08T17:40:32.417Z,16.20
2023-02-08T17:43:00.318Z,28.83
2023-02-08T17:45:28.237Z,74.55
2023-02-08T17:47:55.860Z,93.22
2023-02-08T17:50:23.251Z,80.45
2023-02-08T17:52:50.033Z,50.88
2023-02-08T17:55:18.189Z,24.50
2023-02-08T17:57:46.161Z,28.83
2023-02-08T18:00:16.631Z,22.33
2023-02-08T18:02:48.864Z,18.38
2023-02-08T18:05:27.403Z,18.15
2023-02-08T18:07:56.280Z,17.45
2023-02-08T18:10:24.337Z,12.48
2023-02-08T18:12:51.021Z,15.43
2023-02-08T18:15:20.570Z,20.58
2023-02-08T18:17:47.974Z,15.15
2023-02-08T18:20:16.023Z,16.60
2023-02-08T18:22:43.719Z,11.73
2023-02-08T18:25:12.587Z,35.17
2023-02-08T18:27:39.921Z,26.90
2023-02-08T18:30:07.089Z,38.75
2023-02-08T18:32:34.026Z,41.13
2023-02-08T18:35:03.867Z,45.35
2023-02-08T18:37:31.808Z,36.10
2023-02-08T18:39:58.837Z,24.85
2023-02-08T18:42:25.476Z,23.20
2023-02-08T18:44:52.160Z,31.95
2023-02-08T18:47:18.867Z,42.17
2023-02-08T18:49:47.529Z,57.13
2023-02-08T18:52:15.835Z,75.32
2023-02-08T18:54:42.523Z,60.08
2023-02-08T18:57:12.109Z,44.72
2023-02-08T18:59:38.932Z,51.88
2023-02-08T19:02:07.228Z,56.90
2023-02-08T19:04:38.596Z,47.42
2023-02-08T19:07:06.594Z,44.05
2023-02-08T19:09:36.147Z,37.53
2023-02-08T19:12:03.793Z,32.95
2023-02-08T19:14:30.440Z,22.73
2023-02-08T19:16:57.243Z,19.70
2023-02-08T19:19:23.926Z,17.88
2023-02-08T19:21:50.647Z,18.33
2023-02-08T19:24:19.392Z,22.02
2023-02-08T19:26:46.540Z,24.23
2023-02-08T19:29:16.615Z,23.20
2023-02-08T19:31:44.522Z,19.95
2023-02-08T19:34:12.446Z,20.85
2023-02-08T19:36:51.601Z,21.02
2023-02-08T19:39:22.188Z,25.83
2023-02-08T19:41:49.547Z,18.63
2023-02-08T19:44:18.721Z,16.52
2023-02-08T19:46:52.419Z,15.77
2023-02-08T19:49:19.574Z,17.45
2023-02-08T19:51:46.567Z,15.30
2023-02-08T19:54:15.720Z,15.52
2023-02-08T19:56:42.447Z,18.75
2023-02-08T19:59:20.849Z,13.80
2023-02-08T20:01:47.952Z,17.00
2023-02-08T20:04:15.251Z,15.40
2023-02-08T20:06:44.791Z,19.58
2023-02-08T20:09:12.825Z,15.85
2023-02-08T20:11:55.003Z,16.35
2023-02-08T20:14:24.102Z,14.98
2023-02-08T20:16:50.805Z,18.30
2023-02-08T20:19:17.514Z,18.85
2023-02-08T20:21:45.392Z,18.83
2023-02-08T20:24:12.915Z,13.10
2023-02-08T20:26:41.563Z,14.45
2023-02-08T20:29:09.120Z,21.60
2023-02-08T20:31:38.203Z,16.88
2023-02-08T20:34:07.908Z,16.55
2023-02-08T20:36:44.134Z,18.27
2023-02-08T20:39:14.212Z,15.50
2023-02-08T20:41:44.215Z,15.75
2023-02-08T20:44:12.296Z,15.63
2023-02-08T20:46:39.026Z,16.20
2023-02-08T20:49:07.209Z,15.88
2023-02-08T20:51:35.132Z,14.35
2023-02-08T20:54:02.934Z,21.83
2023-02-08T20:56:34.994Z,18.60
2023-02-08T20:59:06.887Z,18.15
2023-02-08T21:01:34.844Z,17.15
2023-02-08T21:04:02.520Z,19.92
2023-02-08T21:06:34.856Z,16.65
2023-02-08T21:09:20.479Z,13.07
2023-02-08T21:11:47.734Z,15.98
2023-02-08T21:14:18.625Z,17.58
2023-02-08T21:16:48.040Z,16.98
2023-02-08T21:19:15.659Z,22.60
2023-02-08T21:21:42.761Z,19.63
2023-02-08T21:24:11.083Z,23.50
2023-02-08T21:26:37.821Z,17.10
2023-02-08T21:29:06.016Z,17.33
2023-02-08T21:31:34.243Z,18.00
2023-02-08T21:34:03.711Z,19.15
2023-02-08T21:36:30.588Z,18.05
2023-02-08T21:38:58.264Z,21.30
2023-02-08T21:41:30.966Z,25.25
2023-02-08T21:43:59.518Z,20.40
2023-02-08T21:46:28.151Z,16.13
2023-02-08T21:49:14.744Z,15.02
2023-02-08T21:52:00.899Z,15.35
2023-02-08T21:54:41.320Z,20.48
2023-02-08T21:57:20.105Z,16.45
2023-02-08T21:59:48.933Z,15.88
2023-02-08T22:02:21.802Z,16.02
2023-02-08T22:04:49.095Z,17.10
2023-02-08T22:07:16.087Z,19.83
2023-02-08T22:09:42.953Z,16.42
2023-02-08T22:12:18.374Z,17.58
2023-02-08T22:14:45.046Z,14.77
2023-02-08T22:17:11.825Z,14.73
2023-02-08T22:19:40.476Z,18.80
2023-02-08T22:22:08.068Z,22.08
2023-02-08T22:24:35.537Z,15.23
2023-02-08T22:27:02.785Z,16.85
2023-02-08T22:29:29.486Z,18.23
2023-02-08T22:31:56.332Z,14.43
2023-02-08T22:34:24.164Z,13.40
2023-02-08T22:36:50.983Z,14.23
2023-02-08T22:39:17.668Z,15.85
2023-02-08T22:41:44.277Z,19.10
2023-02-08T22:44:10.918Z,16.35
2023-02-08T22:46:37.656Z,15.45
2023-02-08T22:49:04.424Z,14.27
2023-02-08T22:51:31.211Z,14.57
2023-02-08T22:53:57.816Z,15.20
2023-02-08T22:56:24.490Z,11.20
2023-02-08T22:58:51.087Z,14.70
2023-02-08T23:01:17.849Z,12.02
2023-02-08T23:03:44.641Z,13.82
2023-02-08T23:06:15.883Z,16.23
2023-02-08T23:08:44.256Z,12.57
2023-02-08T23:11:12.865Z,13.60
2023-02-08T23:13:39.541Z,13.77
2023-02-08T23:16:06.777Z,15.40
2023-02-08T23:18:35.624Z,14.82
2023-02-08T23:21:10.108Z,16.00
2023-02-08T23:23:37.262Z,13.25
2023-02-08T23:26:08.910Z,13.23
2023-02-08T23:28:36.467Z,13.63
2023-02-08T23:31:07.955Z,13.00
2023-02-08T23:36:06.128Z,11.75
2023-02-08T23:38:32.774Z,14.30
2023-02-08T23:41:07.601Z,13.57
2023-02-08T23:43:34.568Z,14.02
2023-02-08T23:46:16.331Z,16.08
2023-02-08T23:51:09.992Z,14.07
2023-02-08T23:53:37.576Z,14.77
2023-02-08T23:56:09.493Z,12.82
2023-02-08T23:58:36.637Z,15.32
